Terminal Aerodrome Forecast
Issued by NWS

Home | Current Version | Previous Version | Text Only | Print | Product List | Glossary On
Versions: 1 2 3 4 5 6 7 8 9 10 11 12
244
FTUS45 KTFX 312352 RRA
TAFHLN
TAF
KHLN 312352Z 0100/0124 VRB05KT P6SM SCT100 BKN150
      TEMPO 0100/0102 VRB30G40KT -TSRA BKN100CB
     FM010500 22010KT P6SM SCT120 BKN150
     FM011900 28014KT P6SM SCT100 BKN150
      TEMPO 0121/0124 29020G30KT BKN080=

USA.gov is the U.S. government's official web portal to all federal, state and local government web resources and services.